Arjeplog, Sweden

4:42 PM CEST on April 25, 2017 (GMT +0200)
Arvidsjaur | | Change Station

Elev 1243 ft 65.59 °N, 19.28 °E | Updated 22 minutes ago

Mostly Cloudy
Mostly Cloudy
36 °F
Feels Like 29 °F
N
9
Wind Variable Wind from ENE

Today
High -- | Low -- °F
--% Chance of Precip.
Yesterday
High -- | Low -- °F
Precip. -- in
Pressure 29.68 in
Visibility 6.2 miles
Clouds Few 2000 ft
Scattered Clouds 3000 ft
Windchill 29 °F
Dew Point 27 °F
Humidity 70%
Rainfall 0.00 in
Snow Depth Not available.
4:28 AM 9:06 PM
Waning Crescent, 1% visible
METAR ESNX 251420Z 07008KT 030V120 9999 FEW020 SCT030 02/M03 Q1005
Pressure 29.68 in
Visibility 6.2 miles
Clouds Few 2000 ft
Scattered Clouds 3000 ft
Windchill 29 °F
Dew Point 27 °F
Humidity 70%
Rainfall 0.00 in
Snow Depth Not available.
4:28 AM 9:06 PM
Waning Crescent, 1% visible
METAR ESNX 251420Z 07008KT 030V120 9999 FEW020 SCT030 02/M03 Q1005

Get Severe Weather Alerts

Thanks for signing up!

Be on the lookout for a verification email in your inbox.

You'll start receiving the daily forecast at 8 AM.

×

10-Day Weather Forecast

×

Almanac

Astronomy

Apr. 25, 2017 Rise Set
Actual Time
Civil Twilight
Nautical Twilight
Astronomical Twilight
Moon
Length of Visible Light
Length of Day
Tomorrow will be .
, % of the Moon is Illuminated

Today's Extremes

Country Highs Country Lows

Community

WunderPhotos

WunderBlog® & News

Nearby

Air Quality

  Air Quality AQ Index Pollutant
Not available.

Snow Depth

Station Depth Elevation

Earthquake Activity

City Distance Mag. Time & Date
Minimum magnitude displayed is 2.5.

Coastal Water Temperatures

Place Temperature

Stations

Nearby Weather Stations

Station Location Temp. Windchill Dew Point Humidity Wind Precip. Elev Updated Type